Hrossey — VSTY6 — position and weather

sailwx.info

Track history (hours):
 
Tides and Currents Weather Stations Pressure Air Temp Water Temp Dewpoint Dewpoint Depression Visibility Wind Speed Wind Dir Waves Ship Positions

Hrossey

Operator: NorthLink Orkey & Shetland Ferries Ltd

Last reported at 2020-Oct-30 13:28 UTC. Time now 2020-Oct-30 17:22 UTC.
Position N 57°09' W 002°05'.

Length 125 m; draft 5.4 m.

Type: Ship. MMSI: 235448000.

Date/timePositionNaut miles runAvg speedWind from/ knotsBaromVisibWave heightAir tempDewpointWater temp
2020-Oct-30 13:28N 57°09' W 002°05'0 0.0
2020-Oct-30 12:58N 57°09' W 002°05'0 0.0
2020-Oct-30 11:58N 57°09' W 002°05'0 0.0
2020-Oct-30 10:28N 57°09' W 002°05'0 0.0
2020-Oct-30 09:28N 57°09' W 002°05'0 0.0
2020-Oct-30 08:29N 57°09' W 002°05'0 0.0
2020-Oct-30 07:28N 57°09' W 002°05'1 0.7
2020-Oct-30 06:31N 57°08' W 002°04'714.3
2020-Oct-30 06:00N 57°14' W 001°55'816.0
2020-Oct-30 05:30N 57°20' W 001°47'2412.1
2020-Oct-30 03:30N 57°44' W 001°38'7 0.2
2020-Oct-28 22:16N 57°51' W 001°34'1713.8
2020-Oct-28 21:00N 57°34' W 001°37'1413.9
2020-Oct-28 20:01N 57°20' W 001°45'16 6.4
2020-Oct-28 17:30N 57°09' W 002°05'0 0.0
2020-Oct-28 15:00N 57°09' W 002°05'0 0.0
2020-Oct-28 13:00N 57°09' W 002°05'0 0.0
2020-Oct-28 11:30N 57°09' W 002°05'0 0.0
2020-Oct-28 11:00N 57°09' W 002°05'0 0.0
2020-Oct-28 10:30N 57°09' W 002°05'0 0.0
2020-Oct-28 10:00N 57°09' W 002°05'0 0.0
2020-Oct-28 08:30N 57°09' W 002°05'0 0.0
2020-Oct-28 07:28N 57°09' W 002°05'1 0.6
2020-Oct-28 06:31N 57°09' W 002°05'3212.8
2020-Oct-28 04:00N 57°37' W 001°38'32 1.0
2020-Oct-26 18:29N 57°09' W 002°05'0 0.0
2020-Oct-26 11:29N 57°09' W 002°05'0 0.0
2020-Oct-26 10:29N 57°09' W 002°05'0 0.0
2020-Oct-26 07:00N 57°09' W 002°05'2 4.6
2020-Oct-26 06:31N 57°10' W 002°02'1121.6
2020-Oct-26 05:59N 57°19' W 001°50'1021.2
2020-Oct-26 05:31N 57°28' W 001°42'1121.2
2020-Oct-26 05:00N 57°39' W 001°46'87 3.0
2020-Oct-25 00:00N 59°02' W 002°30'15 9.9
2020-Oct-24 22:30N 58°60' W 002°58'0 0.0
2020-Oct-24 22:00N 58°60' W 002°58'7819.5
2020-Oct-24 17:59N 57°50' W 001°50'3120.7
2020-Oct-24 16:30N 57°20' W 001°50'14 5.6
2020-Oct-24 14:00N 57°09' W 002°05'0 0.0
2020-Oct-24 12:00N 57°09' W 002°05'0 0.0
2020-Oct-24 11:00N 57°09' W 002°05'0 0.0
2020-Oct-24 10:00N 57°09' W 002°05'11511.0
2020-Oct-23 23:30N 59°01' W 002°57'1 0.7
2020-Oct-23 22:00N 58°60' W 002°58'14 0.7
2020-Oct-23 00:30N 59°02' W 002°31'14 7.1
2020-Oct-22 22:30N 58°60' W 002°58'7918.5
2020-Oct-22 18:12N 57°49' W 001°50'422.1
2020-Oct-22 18:00N 57°45' W 001°47'3812.4
2020-Oct-22 14:58N 57°09' W 002°05'0 0.0
2020-Oct-22 14:28N 57°09' W 002°05'0 0.0
2020-Oct-22 13:58N 57°09' W 002°05'0 0.0
2020-Oct-22 10:58N 57°09' W 002°05'0 0.0
2020-Oct-22 10:28N 57°09' W 002°05'0 0.0
2020-Oct-22 07:58N 57°09' W 002°05'0 0.0
2020-Oct-22 07:28N 57°09' W 002°05'0 0.0
2020-Oct-22 06:28N 57°09' W 002°05'7 4.9
2020-Oct-22 05:00N 57°13' W 001°56'2617.4
2020-Oct-22 03:30N 57°38' W 001°42'7922.4
2020-Oct-21 23:59N 58°52' W 002°35'1021.8
2020-Oct-21 23:30N 59°00' W 002°48'10 0.4
2020-Oct-21 00:30N 59°02' W 002°30'11413.4
2020-Oct-20 16:00N 57°09' W 002°05'  
Track history (hours):
 
Tides and Currents Weather Stations Pressure Air Temp Water Temp Dewpoint Dewpoint Depression Visibility Wind Speed Wind Dir Waves Ship Positions

Hrossey

Operator: NorthLink Orkey & Shetland Ferries Ltd

Last reported at 2020-Oct-30 13:28 UTC. Time now 2020-Oct-30 17:22 UTC.
Position N 57°09' W 002°05'.

Length 125 m; draft 5.4 m.

Type: Ship. MMSI: 235448000.

Date/timePositionNaut miles runAvg speedWind from/ knotsBaromVisibWave heightAir tempDewpointWater temp
2020-Oct-30 13:28N 57°09' W 002°05'0 0.0
2020-Oct-30 12:58N 57°09' W 002°05'0 0.0
2020-Oct-30 11:58N 57°09' W 002°05'0 0.0
2020-Oct-30 10:28N 57°09' W 002°05'0 0.0
2020-Oct-30 09:28N 57°09' W 002°05'0 0.0
2020-Oct-30 08:29N 57°09' W 002°05'0 0.0
2020-Oct-30 07:28N 57°09' W 002°05'1 0.7
2020-Oct-30 06:31N 57°08' W 002°04'714.3
2020-Oct-30 06:00N 57°14' W 001°55'816.0
2020-Oct-30 05:30N 57°20' W 001°47'2412.1
2020-Oct-30 03:30N 57°44' W 001°38'7 0.2
2020-Oct-28 22:16N 57°51' W 001°34'1713.8
2020-Oct-28 21:00N 57°34' W 001°37'1413.9
2020-Oct-28 20:01N 57°20' W 001°45'16 6.4
2020-Oct-28 17:30N 57°09' W 002°05'0 0.0
2020-Oct-28 15:00N 57°09' W 002°05'0 0.0
2020-Oct-28 13:00N 57°09' W 002°05'0 0.0
2020-Oct-28 11:30N 57°09' W 002°05'0 0.0
2020-Oct-28 11:00N 57°09' W 002°05'0 0.0
2020-Oct-28 10:30N 57°09' W 002°05'0 0.0
2020-Oct-28 10:00N 57°09' W 002°05'0 0.0
2020-Oct-28 08:30N 57°09' W 002°05'0 0.0
2020-Oct-28 07:28N 57°09' W 002°05'1 0.6
2020-Oct-28 06:31N 57°09' W 002°05'3212.8
2020-Oct-28 04:00N 57°37' W 001°38'32 1.0
2020-Oct-26 18:29N 57°09' W 002°05'0 0.0
2020-Oct-26 11:29N 57°09' W 002°05'0 0.0
2020-Oct-26 10:29N 57°09' W 002°05'0 0.0
2020-Oct-26 07:00N 57°09' W 002°05'2 4.6
2020-Oct-26 06:31N 57°10' W 002°02'1121.6
2020-Oct-26 05:59N 57°19' W 001°50'1021.2
2020-Oct-26 05:31N 57°28' W 001°42'1121.2
2020-Oct-26 05:00N 57°39' W 001°46'87 3.0
2020-Oct-25 00:00N 59°02' W 002°30'15 9.9
2020-Oct-24 22:30N 58°60' W 002°58'0 0.0
2020-Oct-24 22:00N 58°60' W 002°58'7819.5
2020-Oct-24 17:59N 57°50' W 001°50'3120.7
2020-Oct-24 16:30N 57°20' W 001°50'14 5.6
2020-Oct-24 14:00N 57°09' W 002°05'0 0.0
2020-Oct-24 12:00N 57°09' W 002°05'0 0.0
2020-Oct-24 11:00N 57°09' W 002°05'0 0.0
2020-Oct-24 10:00N 57°09' W 002°05'11511.0
2020-Oct-23 23:30N 59°01' W 002°57'1 0.7
2020-Oct-23 22:00N 58°60' W 002°58'14 0.7
2020-Oct-23 00:30N 59°02' W 002°31'14 7.1
2020-Oct-22 22:30N 58°60' W 002°58'7918.5
2020-Oct-22 18:12N 57°49' W 001°50'422.1
2020-Oct-22 18:00N 57°45' W 001°47'3812.4
2020-Oct-22 14:58N 57°09' W 002°05'0 0.0
2020-Oct-22 14:28N 57°09' W 002°05'0 0.0
2020-Oct-22 13:58N 57°09' W 002°05'0 0.0
2020-Oct-22 10:58N 57°09' W 002°05'0 0.0
2020-Oct-22 10:28N 57°09' W 002°05'0 0.0
2020-Oct-22 07:58N 57°09' W 002°05'0 0.0
2020-Oct-22 07:28N 57°09' W 002°05'0 0.0
2020-Oct-22 06:28N 57°09' W 002°05'7 4.9
2020-Oct-22 05:00N 57°13' W 001°56'2617.4
2020-Oct-22 03:30N 57°38' W 001°42'7922.4
2020-Oct-21 23:59N 58°52' W 002°35'1021.8
2020-Oct-21 23:30N 59°00' W 002°48'10 0.4
2020-Oct-21 00:30N 59°02' W 002°30'11413.4
2020-Oct-20 16:00N 57°09' W 002°05'  

Dump ship's entire track history